Dati Storici

Data ora Umidita' aria (%) Temperatura aria (°C) Rad globale (W/m²) Gonioanemometro (°) Tacoanemometro (m/s) Pioggia (mm)
17-10-2012 22:00 78.1 % 15.219 2.459 3.641 0.46 0
17-10-2012 21:50 77.6 % 15.019 2.434 281.665 0.299 0
17-10-2012 21:40 76.7 % 15.216 2.946 289.123 -0.018 0
17-10-2012 21:30 76.1 % 15.346 3.173 223.65 0.038 0
17-10-2012 21:20 75.2 % 15.525 3.519 285.563 0.11 0
17-10-2012 21:10 74.6 % 15.553 3.698 226.298 0.034 0
17-10-2012 21:00 74.7 % 15.393 3.57 222.694 0.32 0
17-10-2012 20:50 75.5 % 15.26 3.032 206.77 -0.023 0
17-10-2012 20:40 74.4 % 15.393 3.519 325.722 -0.021 0
17-10-2012 20:30 74.2 % 15.314 3.391 194.557 -0.017 0
17-10-2012 20:20 72.4 % 15.575 3.64 124.83 -0.022 0
17-10-2012 20:10 73 % 15.652 3.64 151.089 0.05 0
17-10-2012 20:00 75.5 % 15.44 3.447 162.762 -0.021 0
17-10-2012 19:50 74.9 % 15.433 3.473 174.362 -0.018 0
17-10-2012 19:40 74.7 % 15.506 2.972 189.787 -0.023 0
17-10-2012 19:30 73.9 % 15.619 3.177 171.113 -0.025 0
17-10-2012 19:20 72 % 15.726 3.279 1.058 -0.023 0
17-10-2012 19:10 71.7 % 15.817 3.434 47.524 0.274 0
17-10-2012 19:00 71.6 % 15.926 3.856 75.983 0.322 0
17-10-2012 18:50 70.9 % 15.947 3.652 88.462 0.473 0

I dati sono presentati in modo automatico a scopo informativo. In seguito a verifica i dati possono subire modifiche o essere invalidati e non riportati negli archivi definitivi.